createdAt,value
2023-02-22T00:02:13.913Z,6.10
2023-02-22T00:04:41.792Z,4.00
2023-02-22T00:07:09.681Z,3.60
2023-02-22T00:09:37.475Z,3.90
2023-02-22T00:12:05.443Z,3.40
2023-02-22T00:14:33.600Z,4.10
2023-02-22T00:17:02.465Z,4.10
2023-02-22T00:19:31.002Z,4.00
2023-02-22T00:22:00.062Z,4.10
2023-02-22T00:24:29.448Z,4.90
2023-02-22T00:26:57.434Z,4.10
2023-02-22T00:29:25.850Z,3.70
2023-02-22T00:31:54.208Z,4.70
2023-02-22T00:34:24.101Z,4.00
2023-02-22T00:36:52.041Z,3.80
2023-02-22T00:39:20.270Z,3.40
2023-02-22T00:41:48.179Z,4.10
2023-02-22T00:44:16.143Z,3.60
2023-02-22T00:46:44.012Z,3.60
2023-02-22T00:49:11.853Z,3.60
2023-02-22T00:51:39.743Z,3.60
2023-02-22T00:54:07.915Z,3.90
2023-02-22T00:56:35.781Z,3.70
2023-02-22T00:59:04.532Z,3.10
2023-02-22T01:01:32.413Z,3.90
2023-02-22T01:04:00.281Z,4.10
2023-02-22T01:06:29.348Z,4.10
2023-02-22T01:08:59.474Z,3.40
2023-02-22T01:11:27.847Z,4.10
2023-02-22T01:13:56.617Z,5.10
2023-02-22T01:16:24.486Z,4.10
2023-02-22T01:18:52.593Z,4.30
2023-02-22T01:21:20.685Z,4.40
2023-02-22T01:23:48.597Z,3.50
2023-02-22T01:26:16.528Z,4.10
2023-02-22T01:28:44.413Z,3.60
2023-02-22T01:31:12.651Z,3.60
2023-02-22T01:33:41.237Z,4.30
2023-02-22T01:36:11.566Z,3.90
2023-02-22T01:38:39.672Z,4.30
2023-02-22T01:41:08.069Z,4.10
2023-02-22T01:43:38.179Z,4.20
2023-02-22T01:46:08.435Z,4.00
2023-02-22T01:48:45.389Z,4.60
2023-02-22T01:51:19.628Z,3.90
2023-02-22T01:53:55.438Z,4.40
2023-02-22T01:56:26.744Z,4.30
2023-02-22T01:59:00.595Z,4.70
2023-02-22T02:04:00.145Z,4.20
2023-02-22T02:06:32.553Z,4.20
2023-02-22T02:09:04.285Z,5.40
2023-02-22T02:11:32.619Z,4.10
2023-02-22T02:14:00.753Z,4.80
2023-02-22T02:16:50.983Z,5.10
2023-02-22T02:19:42.304Z,5.00
2023-02-22T02:22:31.573Z,4.70
2023-02-22T02:25:18.294Z,3.70
2023-02-22T02:28:12.678Z,4.70
2023-02-22T02:31:06.453Z,4.90
2023-02-22T02:34:31.613Z,4.90
2023-02-22T02:37:20.171Z,4.30
2023-02-22T02:40:11.412Z,4.90
2023-02-22T02:42:50.923Z,3.60
2023-02-22T02:45:26.412Z,3.40
2023-02-22T02:47:58.841Z,3.40
2023-02-22T02:50:32.834Z,4.20
2023-02-22T02:53:07.143Z,4.80
2023-02-22T02:55:36.996Z,3.80
2023-02-22T02:58:07.176Z,3.80
2023-02-22T03:00:42.100Z,4.20
2023-02-22T03:03:47.781Z,4.20
2023-02-22T03:06:31.176Z,4.40
2023-02-22T03:09:21.966Z,4.50
2023-02-22T03:12:22.228Z,4.30
2023-02-22T03:14:56.069Z,5.00
2023-02-22T03:17:37.678Z,4.90
2023-02-22T03:20:13.340Z,4.00
2023-02-22T03:22:53.292Z,4.50
2023-02-22T03:25:27.932Z,3.80
2023-02-22T03:28:07.410Z,3.20
2023-02-22T03:30:51.705Z,3.70
2023-02-22T03:33:33.658Z,3.20
2023-02-22T03:36:24.990Z,3.50
2023-02-22T03:38:57.566Z,3.30
2023-02-22T03:41:26.888Z,4.30
2023-02-22T03:44:02.869Z,3.70
2023-02-22T03:46:32.670Z,3.70
2023-02-22T03:49:18.022Z,4.00
2023-02-22T03:51:47.386Z,3.60
2023-02-22T03:54:16.652Z,3.80
2023-02-22T03:56:54.603Z,3.70
2023-02-22T03:59:27.491Z,3.60
2023-02-22T04:01:56.958Z,3.20
2023-02-22T04:04:26.185Z,3.00
2023-02-22T04:06:54.778Z,3.90
2023-02-22T04:09:22.994Z,4.30
2023-02-22T04:11:50.942Z,4.30
2023-02-22T04:14:19.067Z,4.30
2023-02-22T04:16:47.155Z,5.00
2023-02-22T04:19:15.055Z,5.30
2023-02-22T04:21:42.983Z,5.50
2023-02-22T04:24:17.972Z,5.70
2023-02-22T04:26:45.986Z,5.60
2023-02-22T04:29:13.958Z,3.90
2023-02-22T04:31:44.991Z,3.10
2023-02-22T04:34:13.411Z,3.50
2023-02-22T04:36:45.297Z,3.50
2023-02-22T04:39:13.524Z,4.50
2023-02-22T04:41:41.362Z,4.40
2023-02-22T04:44:09.326Z,3.70
2023-02-22T04:46:37.221Z,4.90
2023-02-22T04:49:05.486Z,4.20
2023-02-22T04:51:36.945Z,4.00
2023-02-22T04:54:10.008Z,4.20
2023-02-22T04:56:41.963Z,4.40
2023-02-22T04:59:10.493Z,4.30
2023-02-22T05:01:39.654Z,5.00
2023-02-22T05:04:08.054Z,5.10
2023-02-22T05:06:35.883Z,4.90
2023-02-22T05:09:04.050Z,4.40
2023-02-22T05:11:31.998Z,5.30
2023-02-22T05:13:59.877Z,6.30
2023-02-22T05:16:27.984Z,18.50
2023-02-22T05:18:55.879Z,17.40
2023-02-22T05:21:23.754Z,8.90
2023-02-22T05:23:51.601Z,6.40
2023-02-22T05:26:19.606Z,5.30
2023-02-22T05:28:47.559Z,6.40
2023-02-22T05:31:15.691Z,8.60
2023-02-22T05:33:43.755Z,7.10
2023-02-22T05:36:11.654Z,8.20
2023-02-22T05:38:44.050Z,9.00
2023-02-22T05:41:13.636Z,9.40
2023-02-22T05:43:41.890Z,9.40
2023-02-22T05:46:10.134Z,8.80
2023-02-22T05:48:37.994Z,6.60
2023-02-22T05:51:07.431Z,6.60
2023-02-22T05:53:35.461Z,6.20
2023-02-22T05:56:03.519Z,5.80
2023-02-22T05:58:31.532Z,6.20
2023-02-22T06:01:01.132Z,6.10
2023-02-22T06:03:30.180Z,7.70
2023-02-22T06:05:58.142Z,7.60
2023-02-22T06:08:25.987Z,7.50
2023-02-22T06:10:54.449Z,10.00
2023-02-22T06:13:22.309Z,9.00
2023-02-22T06:15:50.128Z,10.60
2023-02-22T06:18:18.012Z,10.20
2023-02-22T06:20:45.846Z,9.80
2023-02-22T06:23:13.628Z,10.50
2023-02-22T06:25:41.557Z,11.60
2023-02-22T06:28:09.661Z,11.30
2023-02-22T06:30:37.508Z,10.60
2023-02-22T06:33:05.349Z,10.10
2023-02-22T06:35:33.259Z,10.90
2023-02-22T06:38:01.395Z,10.40
2023-02-22T06:40:29.681Z,9.10
2023-02-22T06:42:58.541Z,9.10
2023-02-22T06:45:26.585Z,9.70
2023-02-22T06:47:55.596Z,11.00
2023-02-22T06:50:28.715Z,12.80
2023-02-22T06:52:57.854Z,13.60
2023-02-22T06:55:28.549Z,15.50
2023-02-22T06:57:56.672Z,15.90
2023-02-22T07:00:26.073Z,16.10
2023-02-22T07:02:54.661Z,16.50
2023-02-22T07:05:24.052Z,15.70
2023-02-22T07:07:54.371Z,16.30
2023-02-22T07:10:31.380Z,13.00
2023-02-22T07:12:59.584Z,12.50
2023-02-22T07:15:29.679Z,11.20
2023-02-22T07:17:57.965Z,11.10
2023-02-22T07:20:28.483Z,13.00
2023-02-22T07:22:56.411Z,12.30
2023-02-22T07:25:24.542Z,11.00
2023-02-22T07:27:52.999Z,13.80
2023-02-22T07:30:25.378Z,16.80
2023-02-22T07:32:55.182Z,19.10
2023-02-22T07:35:24.649Z,19.10
2023-02-22T07:37:55.772Z,14.50
2023-02-22T07:40:25.839Z,13.50
2023-02-22T07:42:54.655Z,11.60
2023-02-22T07:45:24.652Z,10.00
2023-02-22T07:47:52.637Z,17.50
2023-02-22T07:50:23.025Z,9.50
2023-02-22T07:52:53.228Z,18.30
2023-02-22T07:55:23.719Z,23.70
2023-02-22T07:57:53.173Z,15.50
2023-02-22T08:00:36.222Z,14.30
2023-02-22T08:03:07.635Z,9.30
2023-02-22T08:05:37.976Z,11.80
2023-02-22T08:08:07.277Z,11.30
2023-02-22T08:10:36.075Z,11.30
2023-02-22T08:13:05.310Z,11.30
2023-02-22T08:15:35.799Z,10.80
2023-02-22T08:18:09.109Z,10.50
2023-02-22T08:20:39.052Z,8.20
2023-02-22T08:23:08.206Z,14.20
2023-02-22T08:25:36.143Z,10.20
2023-02-22T08:28:07.672Z,18.90
2023-02-22T08:30:39.968Z,11.20
2023-02-22T08:33:08.449Z,10.20
2023-02-22T08:35:37.014Z,8.60
2023-02-22T08:38:06.993Z,9.40
2023-02-22T08:40:36.981Z,5.70
2023-02-22T08:43:04.957Z,6.60
2023-02-22T08:45:32.798Z,5.60
2023-02-22T08:48:00.727Z,13.20
2023-02-22T08:50:33.663Z,9.30
2023-02-22T08:53:03.653Z,4.50
2023-02-22T08:55:34.466Z,4.20
2023-02-22T08:58:04.268Z,4.20
2023-02-22T09:00:33.622Z,6.10
2023-02-22T09:03:02.809Z,6.30
2023-02-22T09:05:32.004Z,5.80
2023-02-22T09:08:00.579Z,5.10
2023-02-22T09:10:33.995Z,4.30
2023-02-22T09:13:02.583Z,6.80
2023-02-22T09:15:31.012Z,4.40
2023-02-22T09:17:59.355Z,7.50
2023-02-22T09:20:28.019Z,5.50
2023-02-22T09:22:56.782Z,5.90
2023-02-22T09:25:24.664Z,5.70
2023-02-22T09:27:53.882Z,5.10
2023-02-22T09:30:25.828Z,6.20
2023-02-22T09:32:56.080Z,7.50
2023-02-22T09:35:27.327Z,4.00
2023-02-22T09:37:57.107Z,4.60
2023-02-22T09:40:29.849Z,4.30
2023-02-22T09:43:35.774Z,4.90
2023-02-22T09:46:19.358Z,10.30
2023-02-22T09:48:59.995Z,4.80
2023-02-22T09:52:01.505Z,5.60
2023-02-22T09:54:43.392Z,4.70
2023-02-22T09:57:17.558Z,8.10
2023-02-22T10:00:15.330Z,4.10
2023-02-22T10:02:52.545Z,5.50
2023-02-22T10:05:33.871Z,6.90
2023-02-22T10:08:05.975Z,3.90
2023-02-22T10:10:39.328Z,5.00
2023-02-22T10:13:42.278Z,4.70
2023-02-22T10:16:42.180Z,4.40
2023-02-22T10:19:30.332Z,7.70
2023-02-22T10:22:26.042Z,5.40
2023-02-22T10:25:14.755Z,4.80
2023-02-22T10:27:45.132Z,6.10
2023-02-22T10:30:25.218Z,4.80
2023-02-22T10:33:12.665Z,4.40
2023-02-22T10:35:41.686Z,4.70
2023-02-22T10:38:23.546Z,4.80
2023-02-22T10:41:13.576Z,4.50
2023-02-22T10:43:43.040Z,4.40
2023-02-22T10:46:17.625Z,3.80
2023-02-22T10:48:48.852Z,4.10
2023-02-22T10:51:17.231Z,3.80
2023-02-22T10:53:56.750Z,3.90
2023-02-22T10:56:26.791Z,3.60
2023-02-22T10:58:54.549Z,4.80
2023-02-22T11:01:27.638Z,4.60
2023-02-22T11:04:22.026Z,4.20
2023-02-22T11:07:08.741Z,4.20
2023-02-22T11:09:51.945Z,5.10
2023-02-22T11:12:32.159Z,10.50
2023-02-22T11:15:18.916Z,5.10
2023-02-22T11:17:49.914Z,8.20
2023-02-22T11:20:27.025Z,5.70
2023-02-22T11:22:58.426Z,5.90
2023-02-22T11:25:32.393Z,5.90
2023-02-22T11:28:30.707Z,5.30
2023-02-22T11:31:11.750Z,6.60
2023-02-22T11:33:39.941Z,5.60
2023-02-22T11:36:09.381Z,6.40
2023-02-22T11:38:39.276Z,5.00
2023-02-22T11:41:22.889Z,6.00
2023-02-22T11:43:52.169Z,5.30
2023-02-22T11:46:32.051Z,4.80
2023-02-22T11:49:04.613Z,5.40
2023-02-22T11:51:50.580Z,4.70
2023-02-22T11:54:44.152Z,4.50
2023-02-22T11:57:49.594Z,4.80
2023-02-22T12:00:26.093Z,4.70
2023-02-22T12:03:27.047Z,4.60
2023-02-22T12:06:08.193Z,4.30
2023-02-22T12:09:02.256Z,4.40
2023-02-22T12:11:50.879Z,5.50
2023-02-22T12:14:56.181Z,5.20
2023-02-22T12:17:36.202Z,5.00
2023-02-22T12:20:27.338Z,4.90
2023-02-22T12:23:06.887Z,4.70
2023-02-22T12:25:38.858Z,4.60
2023-02-22T12:28:25.481Z,4.50
2023-02-22T12:31:20.497Z,5.00
2023-02-22T12:34:19.979Z,6.20
2023-02-22T12:37:14.465Z,8.60
2023-02-22T12:39:56.699Z,4.70
2023-02-22T12:42:33.982Z,7.30
2023-02-22T12:45:11.769Z,5.10
2023-02-22T12:47:51.412Z,4.90
2023-02-22T12:50:27.330Z,6.10
2023-02-22T12:53:13.133Z,5.10
2023-02-22T12:56:13.990Z,4.60
2023-02-22T12:59:08.380Z,4.30
2023-02-22T13:01:44.139Z,4.60
2023-02-22T13:04:20.579Z,6.00
2023-02-22T13:06:57.236Z,4.20
2023-02-22T13:09:59.996Z,5.00
2023-02-22T13:13:06.927Z,4.40
2023-02-22T13:15:46.948Z,4.30
2023-02-22T13:18:25.661Z,5.70
2023-02-22T13:21:16.494Z,5.00
2023-02-22T13:24:03.612Z,4.30
2023-02-22T13:26:42.996Z,5.40
2023-02-22T13:29:32.073Z,4.60
2023-02-22T13:32:06.074Z,4.00
2023-02-22T13:35:02.155Z,5.40
2023-02-22T13:38:04.045Z,4.50
2023-02-22T13:40:37.959Z,4.50
2023-02-22T13:43:17.937Z,4.40
2023-02-22T13:46:03.632Z,4.70
2023-02-22T13:48:31.476Z,6.90
2023-02-22T13:51:18.248Z,5.20
2023-02-22T13:54:12.375Z,4.90
2023-02-22T13:56:48.048Z,4.20
2023-02-22T13:59:36.339Z,4.90
2023-02-22T14:02:07.914Z,9.20
2023-02-22T14:04:40.935Z,4.90
2023-02-22T14:07:18.089Z,5.50
2023-02-22T14:09:54.053Z,4.70
2023-02-22T14:12:33.347Z,3.80
2023-02-22T14:15:18.674Z,4.80
2023-02-22T14:17:57.305Z,6.00
2023-02-22T14:20:31.205Z,5.20
2023-02-22T14:23:36.950Z,9.60
2023-02-22T14:26:25.912Z,7.80
2023-02-22T14:29:00.629Z,4.80
2023-02-22T14:31:51.650Z,5.80
2023-02-22T14:34:38.748Z,5.80
2023-02-22T14:37:36.456Z,5.00
2023-02-22T14:40:18.456Z,6.70
2023-02-22T14:42:51.055Z,5.10
2023-02-22T14:45:24.870Z,4.60
2023-02-22T14:48:11.631Z,5.10
2023-02-22T14:50:50.795Z,4.00
2023-02-22T14:53:38.301Z,4.80
2023-02-22T14:56:17.708Z,5.10
2023-02-22T14:59:07.882Z,4.50
2023-02-22T15:01:55.371Z,5.10
2023-02-22T15:04:30.938Z,4.70
2023-02-22T15:07:01.558Z,5.90
2023-02-22T15:09:34.661Z,5.20
2023-02-22T15:12:02.871Z,4.70
2023-02-22T15:14:37.520Z,4.10
2023-02-22T15:17:21.647Z,4.50
2023-02-22T15:19:50.084Z,4.90
2023-02-22T15:22:26.607Z,4.80
2023-02-22T15:24:59.553Z,6.90
2023-02-22T15:27:28.631Z,7.60
2023-02-22T15:30:04.788Z,5.60
2023-02-22T15:32:49.898Z,5.90
2023-02-22T15:35:28.582Z,8.50
2023-02-22T15:38:24.187Z,10.20
2023-02-22T15:41:04.535Z,9.30
2023-02-22T15:43:32.795Z,10.80
2023-02-22T15:46:01.563Z,9.20
2023-02-22T15:48:31.599Z,9.00
2023-02-22T15:51:04.576Z,8.90
2023-02-22T15:53:42.884Z,10.40
2023-02-22T15:56:15.297Z,8.60
2023-02-22T15:58:46.407Z,9.90
2023-02-22T16:01:19.120Z,11.10
2023-02-22T16:03:48.879Z,11.70
2023-02-22T16:06:31.192Z,15.50
2023-02-22T16:09:06.924Z,17.30
2023-02-22T16:11:44.284Z,11.60
2023-02-22T16:14:35.784Z,11.30
2023-02-22T16:17:25.532Z,16.40
2023-02-22T16:19:54.167Z,14.60
2023-02-22T16:22:34.609Z,14.30
2023-02-22T16:25:35.797Z,8.80
2023-02-22T16:28:25.529Z,6.70
2023-02-22T16:30:58.438Z,7.80
2023-02-22T16:33:29.919Z,7.80
2023-02-22T16:35:57.941Z,7.40
2023-02-22T16:38:27.549Z,8.50
2023-02-22T16:40:58.330Z,8.80
2023-02-22T16:43:31.471Z,10.00
2023-02-22T16:46:04.021Z,13.30
2023-02-22T16:48:33.109Z,13.90
2023-02-22T16:51:07.299Z,15.10
2023-02-22T16:53:36.966Z,16.30
2023-02-22T16:56:09.648Z,17.30
2023-02-22T16:58:40.543Z,20.10
2023-02-22T17:01:09.502Z,20.70
2023-02-22T17:03:37.381Z,17.50
2023-02-22T17:06:05.756Z,21.10
2023-02-22T17:08:33.670Z,22.50
2023-02-22T17:11:01.614Z,23.60
2023-02-22T17:13:29.878Z,27.40
2023-02-22T17:15:58.147Z,25.40
2023-02-22T17:18:28.926Z,26.50
2023-02-22T17:20:57.072Z,27.90
2023-02-22T17:23:27.567Z,25.40
2023-02-22T17:25:59.244Z,22.90
2023-02-22T17:28:27.171Z,24.70
2023-02-22T17:31:00.487Z,20.70
2023-02-22T17:33:37.395Z,19.80
2023-02-22T17:36:05.597Z,21.10
2023-02-22T17:38:34.749Z,16.30
2023-02-22T17:41:03.249Z,17.40
2023-02-22T17:43:31.137Z,16.90
2023-02-22T17:45:59.309Z,16.40
2023-02-22T17:48:27.376Z,18.90
2023-02-22T17:50:55.436Z,16.80
2023-02-22T17:53:24.957Z,18.20
2023-02-22T17:55:53.196Z,19.60
2023-02-22T17:58:22.684Z,20.50
2023-02-22T18:00:51.243Z,17.30
2023-02-22T18:03:21.630Z,14.90
2023-02-22T18:05:50.905Z,16.00
2023-02-22T18:08:19.628Z,18.60
2023-02-22T18:10:47.448Z,16.50
2023-02-22T18:13:19.691Z,17.40
2023-02-22T18:15:48.603Z,15.60
2023-02-22T18:18:17.860Z,18.20
2023-02-22T18:20:51.357Z,16.00
2023-02-22T18:23:23.000Z,19.10
2023-02-22T18:26:07.802Z,19.20
2023-02-22T18:28:38.344Z,18.90
2023-02-22T18:31:14.497Z,19.40
2023-02-22T18:33:46.191Z,18.70
2023-02-22T18:36:15.384Z,18.10
2023-02-22T18:38:44.590Z,16.90
2023-02-22T18:41:16.122Z,16.80
2023-02-22T18:43:46.388Z,16.20
2023-02-22T18:46:18.308Z,17.40
2023-02-22T18:48:48.074Z,16.90
2023-02-22T18:51:19.942Z,15.80
2023-02-22T18:53:49.904Z,15.80
2023-02-22T18:56:22.228Z,15.40
2023-02-22T18:58:54.428Z,14.70
2023-02-22T19:01:22.793Z,14.70
2023-02-22T19:03:51.916Z,16.00
2023-02-22T19:06:22.596Z,15.60
2023-02-22T19:08:51.154Z,15.10
2023-02-22T19:11:24.240Z,15.70
2023-02-22T19:13:55.914Z,16.20
2023-02-22T19:16:26.657Z,15.20
2023-02-22T19:18:57.931Z,16.30
2023-02-22T19:21:28.442Z,16.50
2023-02-22T19:24:01.706Z,16.10
2023-02-22T19:26:30.525Z,15.50
2023-02-22T19:29:04.758Z,15.30
2023-02-22T19:31:33.953Z,15.70
2023-02-22T19:34:05.903Z,16.40
2023-02-22T19:36:35.192Z,15.90
2023-02-22T19:39:03.220Z,14.50
2023-02-22T19:41:31.577Z,14.80
2023-02-22T19:44:01.239Z,13.00
2023-02-22T19:46:29.262Z,12.30
2023-02-22T19:48:57.846Z,12.70
2023-02-22T19:51:28.679Z,12.20
2023-02-22T19:54:05.550Z,16.70
2023-02-22T19:56:35.384Z,16.00
2023-02-22T19:59:16.626Z,15.60
2023-02-22T20:01:44.897Z,16.50
2023-02-22T20:04:21.314Z,11.90
2023-02-22T20:06:53.963Z,11.70
2023-02-22T20:09:29.895Z,12.50
2023-02-22T20:11:57.955Z,11.60
2023-02-22T20:14:28.493Z,10.80
2023-02-22T20:16:57.534Z,11.00
2023-02-22T20:19:26.834Z,11.10
2023-02-22T20:21:58.203Z,9.80
2023-02-22T20:24:27.630Z,9.10
2023-02-22T20:26:57.311Z,11.20
2023-02-22T20:29:31.802Z,9.40
2023-02-22T20:32:01.552Z,10.40
2023-02-22T20:34:33.558Z,11.80
2023-02-22T20:37:02.974Z,11.30
2023-02-22T20:39:31.074Z,9.90
2023-02-22T20:42:00.538Z,10.10
2023-02-22T20:44:28.515Z,10.20
2023-02-22T20:46:56.496Z,10.00
2023-02-22T20:49:25.788Z,10.20
2023-02-22T20:51:53.615Z,10.50
2023-02-22T20:54:21.421Z,10.80
2023-02-22T20:56:51.168Z,10.90
2023-02-22T20:59:21.367Z,11.00
2023-02-22T21:01:50.176Z,11.20
2023-02-22T21:04:18.596Z,12.10
2023-02-22T21:06:46.889Z,11.10
2023-02-22T21:09:20.610Z,15.10
2023-02-22T21:11:49.076Z,15.10
2023-02-22T21:14:20.845Z,15.50
2023-02-22T21:16:51.183Z,17.90
2023-02-22T21:19:26.410Z,17.00
2023-02-22T21:21:56.401Z,14.30
2023-02-22T21:24:25.658Z,19.50
2023-02-22T21:26:53.776Z,17.60
2023-02-22T21:29:21.657Z,17.20
2023-02-22T21:31:49.700Z,17.50
2023-02-22T21:34:17.770Z,18.90
2023-02-22T21:36:46.222Z,19.70
2023-02-22T21:39:18.465Z,19.00
2023-02-22T21:41:51.612Z,18.00
2023-02-22T21:44:20.032Z,17.00
2023-02-22T21:46:49.638Z,17.60
2023-02-22T21:49:18.653Z,17.80
2023-02-22T21:51:46.464Z,16.70
2023-02-22T21:54:14.437Z,16.00
2023-02-22T21:56:43.050Z,14.40
2023-02-22T21:59:20.194Z,15.00
2023-02-22T22:01:51.586Z,16.50
2023-02-22T22:04:21.836Z,16.20
2023-02-22T22:06:52.498Z,16.20
2023-02-22T22:09:23.529Z,16.40
2023-02-22T22:11:58.358Z,16.40
2023-02-22T22:14:27.329Z,18.80
2023-02-22T22:17:00.177Z,16.40
2023-02-22T22:19:30.525Z,17.80
2023-02-22T22:21:58.692Z,16.30
2023-02-22T22:24:29.550Z,16.40
2023-02-22T22:27:03.515Z,16.30
2023-02-22T22:29:34.390Z,15.60
2023-02-22T22:32:03.325Z,15.20
2023-02-22T22:34:34.006Z,15.70
2023-02-22T22:37:01.907Z,14.10
2023-02-22T22:39:29.899Z,15.20
2023-02-22T22:41:57.705Z,14.60
2023-02-22T22:44:32.491Z,14.70
2023-02-22T22:47:00.420Z,14.70
2023-02-22T22:49:31.127Z,14.30
2023-02-22T22:51:58.934Z,14.80
2023-02-22T22:54:26.783Z,15.30
2023-02-22T22:56:54.815Z,14.20
2023-02-22T22:59:22.694Z,16.20
2023-02-22T23:01:52.215Z,14.70
2023-02-22T23:04:21.487Z,14.70
2023-02-22T23:06:51.663Z,14.80
2023-02-22T23:09:24.795Z,15.70
2023-02-22T23:11:58.118Z,14.70
2023-02-22T23:14:31.740Z,15.50
2023-02-22T23:17:03.478Z,15.00
2023-02-22T23:19:34.591Z,14.80
2023-02-22T23:22:05.444Z,15.90
2023-02-22T23:24:39.546Z,15.40
2023-02-22T23:27:07.778Z,16.70
2023-02-22T23:29:40.743Z,16.30
2023-02-22T23:32:09.395Z,16.40
2023-02-22T23:34:41.132Z,17.00
2023-02-22T23:37:10.341Z,16.60
2023-02-22T23:39:38.597Z,17.20
2023-02-22T23:42:08.912Z,16.60
2023-02-22T23:44:36.950Z,16.60
2023-02-22T23:47:04.837Z,18.40
2023-02-22T23:49:36.056Z,17.80
2023-02-22T23:52:05.519Z,18.50
2023-02-22T23:54:36.547Z,18.20
2023-02-22T23:57:05.333Z,17.40
2023-02-22T23:59:33.777Z,17.60
